Time;durP1;ratioP1;P1;durP2;ratioP2;P2;SDS_P1;SDS_P2;PMS_P1;PMS_P2;Temp;Humidity;BMP_temperature;BMP_pressure;BME280_temperature;BME280_humidity;BME280_pressure;Samples;Min_cycle;Max_cycle;Signal;HPM_P1;HPM_P2
2024/03/07 00:00:14;;;;;;;8.80;4.17;;;6.00;99.90;;;;;;5016708;28;20846;-80
2024/03/07 00:02:41;;;;;;;14.10;5.73;;;6.00;99.90;;;;;;5017295;28;20775;-80
2024/03/07 00:05:09;;;;;;;14.77;7.03;;;6.10;99.90;;;;;;5016509;28;20992;-80
2024/03/07 00:07:36;;;;;;;22.80;8.77;;;6.10;99.90;;;;;;5016067;28;20480;-80
2024/03/07 00:10:06;;;;;;;10.30;4.57;;;6.10;99.90;;;;;;5016854;28;20543;-80
2024/03/07 00:12:33;;;;;;;13.93;5.47;;;6.10;99.90;;;;;;5016339;28;20432;-80
2024/03/07 00:15:00;;;;;;;12.30;5.90;;;6.10;99.90;;;;;;5016577;28;20812;-80
2024/03/07 00:17:27;;;;;;;15.10;5.57;;;6.10;99.90;;;;;;5016208;28;20467;-80
2024/03/07 00:19:54;;;;;;;10.80;4.60;;;6.10;99.90;;;;;;5016039;28;20463;-80
2024/03/07 00:22:24;;;;;;;12.43;5.57;;;6.00;99.90;;;;;;5016048;28;20547;-80
2024/03/07 00:24:51;;;;;;;14.03;5.10;;;6.10;99.90;;;;;;5015875;28;20440;-80
2024/03/07 00:27:17;;;;;;;15.93;6.20;;;6.10;99.90;;;;;;5015534;28;21087;-80
2024/03/07 00:29:52;;;;;;;12.97;6.00;;;6.10;99.90;;;;;;5016280;28;20462;-79
2024/03/07 00:32:19;;;;;;;7.43;4.20;;;6.10;99.90;;;;;;5015626;28;20947;-80
2024/03/07 00:34:46;;;;;;;8.47;4.80;;;6.10;99.90;;;;;;5015890;28;20455;-80
2024/03/07 00:37:12;;;;;;;7.20;6.00;;;6.20;99.90;;;;;;5016091;28;20456;-80
2024/03/07 00:39:40;;;;;;;9.70;7.23;;;6.00;99.90;;;;;;5016353;28;20456;-80
2024/03/07 00:42:08;;;;;;;17.67;4.87;;;6.00;99.90;;;;;;5015842;28;20452;-80
2024/03/07 00:44:35;;;;;;;21.50;6.57;;;6.00;99.90;;;;;;5015776;28;20446;-80
2024/03/07 00:47:02;;;;;;;12.03;4.80;;;6.10;99.90;;;;;;5015415;28;20526;-80
2024/03/07 00:49:31;;;;;;;9.17;5.23;;;6.00;99.90;;;;;;5014885;28;20467;-80
2024/03/07 00:51:58;;;;;;;11.27;6.43;;;5.90;99.90;;;;;;5015627;28;20537;-80
2024/03/07 00:54:25;;;;;;;17.27;6.43;;;5.90;99.90;;;;;;5015933;28;20440;-80
2024/03/07 00:56:55;;;;;;;16.33;6.40;;;5.80;99.90;;;;;;5014966;28;20470;-80
2024/03/07 00:59:21;;;;;;;15.47;6.33;;;5.80;99.90;;;;;;5015374;28;20904;-80
2024/03/07 01:01:49;;;;;;;21.63;5.60;;;5.70;99.90;;;;;;5015150;28;20450;-80
2024/03/07 01:04:15;;;;;;;12.67;6.73;;;5.60;99.90;;;;;;5015522;28;20450;-80
2024/03/07 01:06:43;;;;;;;12.10;5.30;;;5.60;99.90;;;;;;5015160;28;20447;-80
2024/03/07 01:09:14;;;;;;;12.10;5.43;;;5.50;99.90;;;;;;5015329;28;21039;-80
2024/03/07 01:11:41;;;;;;;13.23;4.00;;;5.50;99.90;;;;;;5015301;28;20436;-80
2024/03/07 01:14:09;;;;;;;15.90;6.93;;;5.40;99.90;;;;;;5023806;28;20484;-80
2024/03/07 01:16:36;;;;;;;12.37;6.27;;;5.40;99.90;;;;;;5032095;28;20459;-80
2024/03/07 01:19:05;;;;;;;10.30;5.10;;;5.40;99.90;;;;;;5031924;28;20444;-80
2024/03/07 01:21:32;;;;;;;24.17;7.50;;;5.40;99.90;;;;;;5028417;28;20514;-80
2024/03/07 01:24:00;;;;;;;13.73;5.73;;;5.30;99.90;;;;;;5028300;28;20462;-80
2024/03/07 01:26:26;;;;;;;15.73;5.47;;;5.20;99.90;;;;;;5021286;28;20487;-80
2024/03/07 01:28:54;;;;;;;15.63;5.93;;;5.20;99.90;;;;;;5016873;28;20471;-80
2024/03/07 01:31:22;;;;;;;10.53;6.43;;;5.20;99.90;;;;;;5016005;28;20443;-80
2024/03/07 01:33:49;;;;;;;12.03;6.73;;;5.30;99.90;;;;;;5016219;28;20444;-80
2024/03/07 01:36:16;;;;;;;7.80;4.43;;;5.30;99.90;;;;;;5022251;28;20431;-79
2024/03/07 01:38:43;;;;;;;13.03;5.90;;;5.30;99.90;;;;;;5034844;28;20464;-80
2024/03/07 01:41:09;;;;;;;12.23;5.57;;;5.30;99.90;;;;;;5034426;28;20432;-80
2024/03/07 01:43:36;;;;;;;16.87;6.63;;;5.20;99.90;;;;;;5033802;28;20454;-80
2024/03/07 01:46:04;;;;;;;13.53;5.30;;;5.20;99.90;;;;;;5032973;28;20435;-80
2024/03/07 01:48:33;;;;;;;12.30;5.90;;;5.10;99.90;;;;;;5015728;28;20494;-80
2024/03/07 01:51:00;;;;;;;11.53;5.20;;;5.10;99.90;;;;;;5014698;28;20452;-80
2024/03/07 01:53:28;;;;;;;14.80;6.67;;;5.00;99.90;;;;;;5014863;28;20455;-80
2024/03/07 01:55:55;;;;;;;31.20;7.53;;;5.10;99.90;;;;;;5014979;28;20458;-80
2024/03/07 01:58:22;;;;;;;6.03;5.37;;;5.10;99.90;;;;;;5014241;28;20479;-80
2024/03/07 02:00:49;;;;;;;27.60;5.87;;;5.00;99.90;;;;;;5014400;28;20458;-80
2024/03/07 02:03:15;;;;;;;11.67;5.50;;;5.00;99.90;;;;;;5013856;28;20448;-80
2024/03/07 02:05:44;;;;;;;13.77;5.67;;;4.90;99.90;;;;;;5014647;28;20455;-80
2024/03/07 02:08:11;;;;;;;8.67;4.70;;;4.80;99.90;;;;;;5014356;28;20570;-80
2024/03/07 02:10:38;;;;;;;12.10;4.43;;;4.70;99.90;;;;;;5014754;28;20444;-80
2024/03/07 02:13:04;;;;;;;12.77;5.27;;;4.70;99.90;;;;;;5014408;28;20468;-80
2024/03/07 02:15:32;;;;;;;16.67;6.73;;;4.60;99.90;;;;;;5014248;28;20929;-80
2024/03/07 02:17:59;;;;;;;12.53;6.63;;;4.50;99.90;;;;;;5014151;28;20499;-80
2024/03/07 02:20:28;;;;;;;12.30;4.83;;;4.40;99.90;;;;;;5014291;28;20451;-80
2024/03/07 02:22:56;;;;;;;10.30;6.40;;;4.40;99.90;;;;;;5014051;28;20455;-80
2024/03/07 02:25:22;;;;;;;7.13;4.07;;;4.60;99.90;;;;;;5014134;28;20460;-80
2024/03/07 02:27:49;;;;;;;5.97;4.20;;;4.30;99.90;;;;;;5013508;28;20492;-80
2024/03/07 02:30:18;;;;;;;6.40;3.90;;;4.30;99.90;;;;;;5013864;28;20451;-80
2024/03/07 02:32:51;;;;;;;10.83;5.17;;;4.30;99.90;;;;;;5014435;28;20448;-80
2024/03/07 02:35:18;;;;;;;8.60;4.50;;;4.30;99.90;;;;;;5014283;28;20498;-80
2024/03/07 02:37:46;;;;;;;12.20;4.90;;;4.30;99.90;;;;;;5013987;28;20459;-80
2024/03/07 02:40:14;;;;;;;8.23;5.03;;;4.20;99.90;;;;;;5014058;28;20525;-79
2024/03/07 02:42:41;;;;;;;9.87;3.40;;;4.10;99.90;;;;;;5013965;28;20440;-79
2024/03/07 02:45:08;;;;;;;13.87;4.63;;;4.10;99.90;;;;;;5013484;28;20960;-79
2024/03/07 02:47:37;;;;;;;9.50;4.90;;;4.00;99.90;;;;;;5013696;28;20558;-79
2024/03/07 02:50:06;;;;;;;9.73;5.00;;;4.00;99.90;;;;;;5014076;28;20450;-79
2024/03/07 02:52:33;;;;;;;19.03;5.63;;;3.90;99.90;;;;;;5014363;28;20448;-79
2024/03/07 02:55:00;;;;;;;21.17;6.73;;;3.80;99.90;;;;;;5014141;28;20521;-80
2024/03/07 02:57:28;;;;;;;12.60;4.63;;;3.80;99.90;;;;;;5013311;28;20996;-79
2024/03/07 02:59:54;;;;;;;12.40;6.10;;;3.80;99.90;;;;;;5013618;28;20443;-79
2024/03/07 03:02:21;;;;;;;16.60;5.60;;;3.80;99.90;;;;;;5014488;28;20455;-79
2024/03/07 03:04:48;;;;;;;7.60;4.00;;;3.90;99.90;;;;;;5013391;28;20944;-79
2024/03/07 03:07:14;;;;;;;16.27;6.67;;;3.80;99.90;;;;;;5014483;28;20471;-80
2024/03/07 03:09:43;;;;;;;7.33;3.50;;;3.80;99.90;;;;;;5013086;28;20479;-80
2024/03/07 03:12:10;;;;;;;9.00;3.50;;;3.80;99.90;;;;;;5013787;28;20542;-80
2024/03/07 03:14:38;;;;;;;9.53;5.13;;;3.80;99.90;;;;;;5016968;28;20455;-80
2024/03/07 03:17:08;;;;;;;8.13;3.60;;;3.80;99.90;;;;;;5017373;28;20475;-80
2024/03/07 03:19:36;;;;;;;16.40;5.13;;;3.90;99.90;;;;;;5017409;28;20455;-80
2024/03/07 03:22:03;;;;;;;12.17;6.00;;;4.00;99.90;;;;;;5017700;28;20439;-80
2024/03/07 03:24:30;;;;;;;9.20;5.10;;;4.00;99.90;;;;;;5017728;28;20474;-79
2024/03/07 03:26:57;;;;;;;18.73;6.83;;;4.10;99.90;;;;;;5017142;28;20522;-79
2024/03/07 03:29:23;;;;;;;14.37;5.43;;;4.20;99.90;;;;;;5016914;28;20482;-79
2024/03/07 03:31:51;;;;;;;8.47;4.33;;;4.20;99.90;;;;;;5016886;28;20902;-79
2024/03/07 03:34:18;;;;;;;8.47;4.73;;;4.20;99.90;;;;;;5021297;28;20458;-80
2024/03/07 03:36:45;;;;;;;15.83;6.60;;;4.20;99.90;;;;;;5016708;28;20447;-80
2024/03/07 03:39:13;;;;;;;18.40;8.27;;;4.20;99.90;;;;;;5017033;28;20442;-80
2024/03/07 03:41:40;;;;;;;22.67;6.83;;;4.10;99.90;;;;;;5016984;28;20447;-80
2024/03/07 03:44:07;;;;;;;19.67;4.50;;;4.00;99.90;;;;;;5016725;28;20493;-80
2024/03/07 03:46:34;;;;;;;14.40;6.37;;;3.90;99.90;;;;;;5016749;28;20455;-80
2024/03/07 03:49:02;;;;;;;11.30;4.80;;;3.90;99.90;;;;;;5016698;28;20520;-80
2024/03/07 03:51:29;;;;;;;15.83;5.87;;;3.90;99.90;;;;;;5016718;28;20443;-80
2024/03/07 03:53:56;;;;;;;13.93;6.00;;;3.80;99.90;;;;;;5016525;28;21007;-79
2024/03/07 03:56:23;;;;;;;15.90;6.67;;;3.80;99.90;;;;;;5016617;28;20458;-79
2024/03/07 03:58:49;;;;;;;11.47;4.70;;;3.60;99.90;;;;;;5016220;28;20483;-79
2024/03/07 04:01:16;;;;;;;9.33;4.50;;;3.60;99.90;;;;;;5016439;28;20451;-79
2024/03/07 04:03:46;;;;;;;9.93;5.53;;;3.50;99.90;;;;;;5016454;28;20446;-79
2024/03/07 04:06:15;;;;;;;9.00;4.40;;;3.50;99.90;;;;;;5016904;28;20565;-79
2024/03/07 04:08:41;;;;;;;8.10;4.00;;;3.50;99.90;;;;;;5015945;28;21052;-79
2024/03/07 04:11:09;;;;;;;11.23;3.87;;;3.50;99.90;;;;;;5016248;28;20447;-79
2024/03/07 04:13:36;;;;;;;13.23;5.87;;;3.50;99.90;;;;;;5016254;28;20510;-79
2024/03/07 04:16:03;;;;;;;8.73;6.50;;;3.50;99.90;;;;;;5016207;28;20451;-79
2024/03/07 04:18:30;;;;;;;11.77;5.07;;;3.50;99.90;;;;;;5016210;28;20842;-79
2024/03/07 04:20:56;;;;;;;14.73;7.30;;;3.40;99.90;;;;;;5015791;28;20544;-79
2024/03/07 04:23:24;;;;;;;10.40;4.50;;;3.50;99.90;;;;;;5016004;28;20448;-79
2024/03/07 04:25:51;;;;;;;11.77;4.30;;;3.40;99.90;;;;;;5015063;28;20510;-79
2024/03/07 04:28:19;;;;;;;12.30;4.93;;;3.40;99.90;;;;;;5015889;28;20475;-79
2024/03/07 04:30:45;;;;;;;14.40;8.43;;;3.40;99.90;;;;;;5031165;28;20452;-79
2024/03/07 04:33:12;;;;;;;14.90;6.53;;;3.40;99.90;;;;;;5034555;28;20447;-80
2024/03/07 04:35:39;;;;;;;13.27;5.67;;;3.30;99.90;;;;;;5030338;28;20451;-80
2024/03/07 04:38:09;;;;;;;9.73;5.13;;;3.30;99.90;;;;;;5029694;28;20494;-79
2024/03/07 04:40:38;;;;;;;15.27;5.90;;;3.30;99.90;;;;;;5016226;28;20498;-79
2024/03/07 04:43:05;;;;;;;18.13;6.33;;;3.20;99.90;;;;;;5015557;28;20944;-79
2024/03/07 04:45:32;;;;;;;8.10;4.77;;;3.20;99.90;;;;;;5015773;28;20440;-79
2024/03/07 04:47:58;;;;;;;13.87;7.37;;;3.20;99.90;;;;;;5015250;28;21058;-79
2024/03/07 04:50:26;;;;;;;8.67;4.80;;;3.10;99.90;;;;;;5015484;28;20483;-79
2024/03/07 04:52:53;;;;;;;14.13;5.20;;;3.10;99.90;;;;;;5015846;28;20452;-79
2024/03/07 04:55:20;;;;;;;11.93;4.37;;;3.10;99.90;;;;;;5016641;28;20458;-79
2024/03/07 04:57:48;;;;;;;14.07;6.70;;;3.00;99.90;;;;;;5015213;28;20483;-79
2024/03/07 05:00:18;;;;;;;9.70;5.43;;;3.00;99.90;;;;;;5015418;28;20443;-79
2024/03/07 05:02:46;;;;;;;14.07;6.00;;;2.90;99.90;;;;;;5016520;28;20439;-79
2024/03/07 05:05:13;;;;;;;9.63;4.17;;;3.00;99.90;;;;;;5015521;28;20461;-79
2024/03/07 05:07:41;;;;;;;13.10;4.33;;;2.90;99.90;;;;;;5015181;28;20893;-79
2024/03/07 05:10:08;;;;;;;8.57;4.13;;;2.90;99.90;;;;;;5015220;28;20497;-79
2024/03/07 05:12:36;;;;;;;16.57;4.60;;;2.90;99.90;;;;;;5015233;28;20448;-79
2024/03/07 05:15:05;;;;;;;10.67;5.03;;;2.90;99.90;;;;;;5015098;28;20447;-79
2024/03/07 05:17:34;;;;;;;9.43;4.40;;;2.90;99.90;;;;;;5015167;28;20468;-79
2024/03/07 05:20:01;;;;;;;8.40;3.80;;;3.00;99.90;;;;;;5015285;28;20802;-79
2024/03/07 05:22:30;;;;;;;9.00;5.00;;;3.00;99.90;;;;;;5015009;28;20450;-79
2024/03/07 05:24:58;;;;;;;14.60;4.90;;;3.00;99.90;;;;;;5014852;28;20953;-79
2024/03/07 05:27:25;;;;;;;10.00;4.47;;;2.90;99.90;;;;;;5014641;28;20981;-79
2024/03/07 05:29:52;;;;;;;7.63;4.03;;;2.90;99.90;;;;;;5015281;28;20516;-80
2024/03/07 05:32:25;;;;;;;9.27;3.60;;;2.90;99.90;;;;;;5017307;28;20447;-80
2024/03/07 05:34:53;;;;;;;9.17;5.07;;;2.80;99.90;;;;;;5015341;28;20436;-79
2024/03/07 05:37:21;;;;;;;11.13;4.37;;;2.80;99.90;;;;;;5014789;28;20483;-79
2024/03/07 05:39:48;;;;;;;8.70;4.77;;;2.70;99.90;;;;;;5018276;28;20455;-80
2024/03/07 05:42:15;;;;;;;3.80;2.40;;;2.70;99.90;;;;;;5014684;28;20447;-80
2024/03/07 05:44:42;;;;;;;10.83;5.20;;;2.70;99.90;;;;;;5014617;28;20439;-79
2024/03/07 05:47:09;;;;;;;12.47;4.43;;;2.60;99.90;;;;;;5014545;28;20820;-79
2024/03/07 05:49:37;;;;;;;12.90;5.40;;;2.60;99.90;;;;;;5015261;28;20876;-79
2024/03/07 05:52:05;;;;;;;4.73;3.47;;;2.50;99.90;;;;;;5014535;28;20443;-80
2024/03/07 05:54:32;;;;;;;15.37;4.63;;;2.50;99.90;;;;;;5014142;28;20448;-79
2024/03/07 05:56:59;;;;;;;7.10;3.23;;;2.60;99.90;;;;;;5014020;28;20847;-79
2024/03/07 05:59:26;;;;;;;14.77;5.30;;;2.60;99.90;;;;;;5014636;28;20898;-79
2024/03/07 06:01:54;;;;;;;13.67;5.67;;;2.60;99.90;;;;;;5013949;28;20925;-79
2024/03/07 06:04:21;;;;;;;11.13;6.47;;;2.60;99.90;;;;;;5013876;28;20443;-79
2024/03/07 06:06:49;;;;;;;15.70;5.77;;;2.50;99.90;;;;;;5014807;28;20483;-79
2024/03/07 06:09:20;;;;;;;12.60;5.37;;;2.50;99.90;;;;;;5014331;28;20546;-79
2024/03/07 06:11:47;;;;;;;8.00;3.97;;;2.50;99.90;;;;;;5014194;28;20436;-79
2024/03/07 06:14:14;;;;;;;12.83;4.27;;;2.50;99.90;;;;;;5013988;28;20458;-79
2024/03/07 06:16:41;;;;;;;5.53;3.70;;;2.50;99.90;;;;;;5013968;28;20945;-79
2024/03/07 06:19:09;;;;;;;8.70;4.00;;;2.50;99.90;;;;;;5014038;28;20444;-79
2024/03/07 06:21:39;;;;;;;7.63;3.50;;;2.60;99.90;;;;;;5014031;28;20459;-79
2024/03/07 06:24:08;;;;;;;15.53;5.53;;;2.70;99.90;;;;;;5013800;28;20945;-79
2024/03/07 06:26:47;;;;;;;8.43;4.93;;;2.80;99.90;;;;;;5013576;28;20491;-79
2024/03/07 06:29:15;;;;;;;9.80;3.77;;;2.90;99.90;;;;;;5014970;28;20475;-79
2024/03/07 06:31:42;;;;;;;14.43;5.63;;;2.90;99.90;;;;;;5014647;28;20895;-79
2024/03/07 06:34:10;;;;;;;16.87;6.53;;;2.90;99.90;;;;;;5013563;28;20983;-79
2024/03/07 06:36:36;;;;;;;6.60;3.57;;;2.80;99.90;;;;;;5014608;28;20447;-79
2024/03/07 06:39:04;;;;;;;10.60;4.90;;;2.80;99.90;;;;;;5015040;28;20450;-79
2024/03/07 06:41:33;;;;;;;12.60;3.90;;;2.80;99.90;;;;;;5013765;28;20491;-79
2024/03/07 06:43:59;;;;;;;7.87;3.70;;;2.90;99.90;;;;;;5013503;28;20451;-79
2024/03/07 06:46:26;;;;;;;8.27;5.63;;;3.00;99.90;;;;;;5013859;28;20447;-79
2024/03/07 06:48:54;;;;;;;19.73;5.30;;;3.00;99.90;;;;;;5016195;28;20450;-79
2024/03/07 06:51:20;;;;;;;7.60;3.60;;;3.00;99.90;;;;;;5017862;28;20450;-79
2024/03/07 06:53:47;;;;;;;3.17;2.90;;;3.00;99.90;;;;;;5019349;28;20443;-80
2024/03/07 06:56:14;;;;;;;11.47;4.03;;;3.00;99.90;;;;;;5018086;28;20448;-79
2024/03/07 06:58:43;;;;;;;7.50;4.63;;;3.10;99.90;;;;;;5017561;28;20483;-79
2024/03/07 07:01:15;;;;;;;7.40;3.43;;;3.10;99.90;;;;;;5017630;28;21003;-79
2024/03/07 07:03:43;;;;;;;9.50;4.90;;;3.10;99.90;;;;;;5017363;28;20937;-79
2024/03/07 07:06:10;;;;;;;10.43;4.43;;;3.10;99.90;;;;;;5017607;28;20455;-80
2024/03/07 07:08:37;;;;;;;7.20;4.20;;;3.20;99.90;;;;;;5018122;28;20471;-80
2024/03/07 07:11:04;;;;;;;12.20;6.50;;;3.30;99.90;;;;;;5017772;28;20479;-80
2024/03/07 07:13:31;;;;;;;17.30;5.90;;;3.50;99.90;;;;;;5017642;28;20469;-80
2024/03/07 07:15:59;;;;;;;8.43;3.77;;;3.60;99.90;;;;;;5017529;28;20478;-80
2024/03/07 07:18:26;;;;;;;6.93;5.63;;;3.70;99.90;;;;;;5017941;28;20478;-79
2024/03/07 07:20:53;;;;;;;17.37;6.10;;;3.80;99.90;;;;;;5017313;28;20447;-79
2024/03/07 07:23:19;;;;;;;10.10;5.10;;;3.90;99.90;;;;;;5018661;28;20452;-79
2024/03/07 07:25:47;;;;;;;6.10;4.40;;;3.90;99.90;;;;;;5018777;28;20451;-79
2024/03/07 07:28:15;;;;;;;17.03;4.80;;;3.90;99.90;;;;;;5018780;28;20455;-79
2024/03/07 07:30:42;;;;;;;5.70;4.03;;;4.00;99.90;;;;;;5022000;28;20486;-81
2024/03/07 07:33:10;;;;;;;8.37;4.73;;;3.90;99.90;;;;;;5018003;28;20498;-80
2024/03/07 07:35:37;;;;;;;14.60;5.70;;;3.80;99.90;;;;;;5018481;28;20454;-80
2024/03/07 07:38:06;;;;;;;10.63;3.77;;;3.90;99.90;;;;;;5038944;28;20467;-80
2024/03/07 07:40:33;;;;;;;10.93;4.73;;;3.70;99.90;;;;;;5037051;28;20949;-80
2024/03/07 07:43:01;;;;;;;8.17;5.10;;;3.80;99.90;;;;;;5033803;28;20448;-80
2024/03/07 07:45:28;;;;;;;8.53;4.60;;;3.90;99.90;;;;;;5029741;28;20527;-80
2024/03/07 07:47:55;;;;;;;4.73;3.90;;;3.80;99.90;;;;;;5017596;28;20516;-80
2024/03/07 07:50:24;;;;;;;8.50;4.20;;;3.80;99.90;;;;;;5018059;28;20483;-80
2024/03/07 07:52:53;;;;;;;10.83;5.50;;;3.80;99.90;;;;;;5018528;28;20436;-80
2024/03/07 07:55:21;;;;;;;5.43;3.00;;;3.90;99.90;;;;;;5018861;28;20459;-79
2024/03/07 07:57:52;;;;;;;12.10;6.27;;;4.00;99.90;;;;;;5016800;28;20498;-80
2024/03/07 08:00:22;;;;;;;7.47;4.60;;;4.10;99.90;;;;;;5015665;28;20432;-80
2024/03/07 08:02:53;;;;;;;16.53;5.33;;;4.10;99.90;;;;;;5016836;28;20468;-80
2024/03/07 08:05:22;;;;;;;7.27;4.30;;;4.20;99.90;;;;;;5018843;28;20435;-80
2024/03/07 08:07:51;;;;;;;11.70;5.77;;;4.40;99.90;;;;;;5019682;28;20467;-80
2024/03/07 08:10:19;;;;;;;11.30;4.97;;;4.60;99.90;;;;;;5020710;28;20472;-80
2024/03/07 08:12:46;;;;;;;9.70;4.67;;;4.70;99.90;;;;;;5019411;28;20928;-80
2024/03/07 08:15:14;;;;;;;19.27;7.17;;;5.00;99.90;;;;;;5020515;28;20436;-80
2024/03/07 08:17:44;;;;;;;14.03;5.63;;;5.10;99.90;;;;;;5018734;28;20468;-79
2024/03/07 08:20:13;;;;;;;10.63;4.10;;;5.10;99.90;;;;;;5016443;28;20424;-80
2024/03/07 08:22:41;;;;;;;11.67;4.83;;;5.10;99.90;;;;;;5016324;28;20447;-79
2024/03/07 08:25:10;;;;;;;13.73;5.57;;;5.20;99.90;;;;;;5016278;28;20443;-79
2024/03/07 08:27:38;;;;;;;17.30;7.40;;;5.30;99.90;;;;;;5016270;28;20483;-79
2024/03/07 08:30:06;;;;;;;14.00;5.77;;;5.40;99.90;;;;;;5015786;28;21008;-79
2024/03/07 08:32:34;;;;;;;14.30;7.33;;;5.40;99.90;;;;;;5016231;28;20482;-79
2024/03/07 08:35:06;;;;;;;8.63;5.67;;;5.60;99.90;;;;;;5016056;28;20513;-79
2024/03/07 08:37:34;;;;;;;8.93;4.30;;;5.70;99.90;;;;;;5015920;28;21006;-79
2024/03/07 08:40:02;;;;;;;17.30;6.10;;;5.70;99.90;;;;;;5017991;28;20446;-79
2024/03/07 08:42:32;;;;;;;14.23;5.27;;;5.70;99.90;;;;;;5017264;28;20502;-79
2024/03/07 08:44:58;;;;;;;15.00;6.27;;;5.60;99.90;;;;;;5017202;28;21047;-80
2024/03/07 08:47:25;;;;;;;9.70;5.47;;;5.70;99.90;;;;;;5016785;28;20479;-80
2024/03/07 08:49:52;;;;;;;12.37;6.60;;;5.70;99.90;;;;;;5016048;28;20843;-80
2024/03/07 08:52:19;;;;;;;16.07;7.00;;;5.60;99.90;;;;;;5015766;28;20964;-80
2024/03/07 08:54:45;;;;;;;9.47;4.60;;;5.40;99.90;;;;;;5015984;28;20444;-80
2024/03/07 08:57:16;;;;;;;10.67;5.50;;;5.40;99.90;;;;;;5015273;28;20480;-80
2024/03/07 08:59:45;;;;;;;11.40;6.40;;;5.50;99.90;;;;;;5015492;28;20526;-80
2024/03/07 09:02:12;;;;;;;18.57;6.10;;;5.50;99.90;;;;;;5015800;28;20454;-80
2024/03/07 09:04:39;;;;;;;16.40;5.10;;;5.60;99.90;;;;;;5015457;28;20439;-80
2024/03/07 09:07:06;;;;;;;14.57;4.90;;;5.50;99.90;;;;;;5015430;28;20845;-80
2024/03/07 09:09:33;;;;;;;12.97;6.20;;;5.30;99.90;;;;;;5015388;28;20995;-80
2024/03/07 09:12:01;;;;;;;16.10;6.90;;;5.20;99.90;;;;;;5015108;28;20451;-80
2024/03/07 09:14:28;;;;;;;14.30;5.20;;;5.30;99.90;;;;;;5016253;28;20456;-80
2024/03/07 09:16:56;;;;;;;12.83;6.30;;;5.20;99.90;;;;;;5015206;28;20474;-80
2024/03/07 09:19:24;;;;;;;10.07;4.13;;;5.20;99.90;;;;;;5015293;28;20455;-80
2024/03/07 09:21:52;;;;;;;11.37;6.67;;;5.20;99.90;;;;;;5016021;28;20530;-80
2024/03/07 09:24:21;;;;;;;12.70;6.20;;;5.30;99.90;;;;;;5015476;28;20455;-80
2024/03/07 09:26:48;;;;;;;18.63;5.80;;;5.30;99.90;;;;;;5015473;28;20471;-80
2024/03/07 09:29:15;;;;;;;12.13;5.40;;;5.20;99.90;;;;;;5015867;28;20447;-79
2024/03/07 09:31:41;;;;;;;8.53;4.17;;;5.10;99.90;;;;;;5015330;28;20852;-78
2024/03/07 09:34:09;;;;;;;12.20;6.07;;;5.10;99.90;;;;;;5015159;28;20459;-79
2024/03/07 09:36:36;;;;;;;11.60;5.37;;;5.10;99.90;;;;;;5025678;28;20459;-79
2024/03/07 09:39:03;;;;;;;12.10;5.83;;;5.20;99.90;;;;;;5015595;28;20444;-79
2024/03/07 09:41:31;;;;;;;5.60;3.70;;;5.20;99.90;;;;;;5019757;28;20432;-80
2024/03/07 09:44:00;;;;;;;17.67;5.60;;;5.20;99.90;;;;;;5016999;28;20448;-80
2024/03/07 09:46:28;;;;;;;10.70;5.27;;;5.30;99.90;;;;;;5015156;28;20459;-80
2024/03/07 09:48:56;;;;;;;23.73;6.67;;;5.20;99.90;;;;;;5015076;28;20793;-80
2024/03/07 09:51:24;;;;;;;9.10;3.73;;;5.20;99.90;;;;;;5015011;28;20841;-80
2024/03/07 09:53:53;;;;;;;14.60;5.63;;;5.20;99.90;;;;;;5014927;28;20447;-79
2024/03/07 09:56:22;;;;;;;16.00;6.37;;;5.30;99.90;;;;;;5014931;28;20455;-79
2024/03/07 09:58:52;;;;;;;13.03;6.70;;;5.20;99.90;;;;;;5014144;28;20981;-79
2024/03/07 10:01:21;;;;;;;10.00;5.67;;;5.20;99.90;;;;;;5015245;28;20921;-80
2024/03/07 10:03:49;;;;;;;18.00;5.70;;;5.20;99.90;;;;;;5015153;28;20443;-80
2024/03/07 10:06:16;;;;;;;12.20;4.80;;;5.30;99.90;;;;;;5015142;28;20488;-79
2024/03/07 10:08:44;;;;;;;16.93;5.60;;;5.30;99.90;;;;;;5015681;28;20471;-80
2024/03/07 10:11:11;;;;;;;11.07;6.20;;;5.20;99.90;;;;;;5015396;28;20482;-80
2024/03/07 10:13:38;;;;;;;10.70;4.00;;;5.10;99.90;;;;;;5015868;28;20451;-79
2024/03/07 10:16:05;;;;;;;16.60;4.97;;;5.10;99.90;;;;;;5016642;28;20451;-79
2024/03/07 10:18:32;;;;;;;11.37;5.90;;;4.80;99.90;;;;;;5014479;28;20514;-79
2024/03/07 10:21:03;;;;;;;10.67;4.10;;;4.90;99.90;;;;;;5014958;28;20443;-79
2024/03/07 10:23:33;;;;;;;15.03;5.77;;;5.10;99.90;;;;;;5014256;28;20475;-79
2024/03/07 10:26:03;;;;;;;12.40;5.70;;;5.20;99.90;;;;;;5014495;28;20537;-79
2024/03/07 10:28:30;;;;;;;15.37;5.47;;;5.20;99.90;;;;;;5014578;28;20562;-79
2024/03/07 10:30:57;;;;;;;14.87;4.33;;;5.30;99.90;;;;;;5015366;28;20587;-79
2024/03/07 10:33:28;;;;;;;18.60;6.70;;;5.50;99.90;;;;;;5015083;28;20452;-80
2024/03/07 10:35:55;;;;;;;25.50;6.63;;;5.70;99.90;;;;;;5014361;28;20447;-80
2024/03/07 10:38:22;;;;;;;13.97;5.17;;;5.50;99.90;;;;;;5014160;28;20479;-80
2024/03/07 10:40:55;;;;;;;20.27;6.87;;;5.60;99.90;;;;;;5014291;28;20439;-80
2024/03/07 10:43:26;;;;;;;13.63;5.03;;;5.70;99.90;;;;;;5014922;28;20428;-80
2024/03/07 10:45:56;;;;;;;15.90;6.20;;;5.80;99.90;;;;;;5013940;28;20909;-80
2024/03/07 10:48:29;;;;;;;12.13;4.57;;;5.60;99.90;;;;;;5014650;28;20870;-80
2024/03/07 10:51:09;;;;;;;8.77;5.17;;;5.80;99.90;;;;;;5014311;28;20479;-80
2024/03/07 10:53:42;;;;;;;13.50;5.80;;;5.90;99.90;;;;;;5015109;28;20490;-80
2024/03/07 10:56:24;;;;;;;9.13;4.63;;;5.90;99.90;;;;;;5020742;28;20459;-80
2024/03/07 10:59:00;;;;;;;21.17;4.33;;;6.00;99.90;;;;;;5033357;28;20510;-80
2024/03/07 11:01:31;;;;;;;15.90;6.27;;;6.10;99.90;;;;;;5035380;28;20427;-79
2024/03/07 11:03:59;;;;;;;15.07;4.40;;;6.10;99.90;;;;;;5034995;28;20432;-79
2024/03/07 11:06:26;;;;;;;10.90;4.83;;;6.00;99.90;;;;;;5033192;28;20447;-80
2024/03/07 11:08:54;;;;;;;10.20;5.20;;;6.10;99.90;;;;;;5032129;28;20427;-80
2024/03/07 11:11:23;;;;;;;14.07;5.70;;;6.20;99.90;;;;;;5019962;28;20486;-80
2024/03/07 11:13:50;;;;;;;8.63;3.87;;;6.20;99.90;;;;;;5015612;28;20456;-80
2024/03/07 11:16:19;;;;;;;14.33;5.80;;;6.30;99.90;;;;;;5015900;28;20436;-79
2024/03/07 11:19:21;;;;;;;10.30;4.50;;;6.30;99.90;;;;;;5014581;28;20476;-79
2024/03/07 11:24:36;;;;;;;9.97;4.00;;;6.20;99.90;;;;;;5009203;28;21044;-79
2024/03/07 11:27:08;;;;;;;8.60;3.13;;;6.30;99.90;;;;;;5016882;28;20906;-80
2024/03/07 11:30:06;;;;;;;12.07;5.17;;;6.20;99.90;;;;;;5014510;28;20527;-80
2024/03/07 11:32:36;;;;;;;7.60;3.90;;;6.30;99.90;;;;;;4998468;28;20495;-79
2024/03/07 11:35:07;;;;;;;8.73;3.83;;;6.40;99.90;;;;;;5016942;28;20448;-79
2024/03/07 11:37:46;;;;;;;9.20;4.73;;;6.50;99.90;;;;;;5017488;28;20464;-79
2024/03/07 11:40:18;;;;;;;3.37;2.80;;;6.40;99.90;;;;;;5017925;28;20439;-79
2024/03/07 11:42:47;;;;;;;15.63;4.93;;;6.20;99.90;;;;;;5018123;28;20948;-79
2024/03/07 11:45:24;;;;;;;6.50;4.30;;;6.00;99.90;;;;;;5017806;28;20431;-79
2024/03/07 11:47:59;;;;;;;11.57;4.13;;;6.00;99.90;;;;;;5017653;28;20459;-79
2024/03/07 11:50:26;;;;;;;13.60;4.87;;;6.10;99.90;;;;;;5017521;28;20534;-79
2024/03/07 11:52:54;;;;;;;10.50;4.97;;;6.10;99.90;;;;;;5017516;28;20927;-79
2024/03/07 11:55:21;;;;;;;17.13;6.57;;;6.20;99.90;;;;;;5017567;28;20450;-78
2024/03/07 11:57:48;;;;;;;11.93;4.47;;;6.20;99.90;;;;;;5016727;28;21007;-79
2024/03/07 12:00:16;;;;;;;11.90;3.73;;;6.20;99.90;;;;;;5017132;28;20440;-79
2024/03/07 12:02:44;;;;;;;11.60;5.33;;;6.20;99.90;;;;;;5016909;28;20856;-78
2024/03/07 12:05:15;;;;;;;13.83;3.87;;;6.30;99.90;;;;;;5016901;28;20443;-78
2024/03/07 12:07:42;;;;;;;14.80;5.10;;;6.30;99.90;;;;;;5017186;28;20467;-79
2024/03/07 12:10:10;;;;;;;9.63;4.00;;;6.50;99.90;;;;;;5017121;28;20522;-79
2024/03/07 12:12:38;;;;;;;19.10;5.30;;;6.60;99.90;;;;;;5016924;28;20481;-80
2024/03/07 12:15:09;;;;;;;5.90;2.40;;;6.70;99.90;;;;;;5016536;28;20479;-80
2024/03/07 12:17:36;;;;;;;7.43;3.20;;;6.80;99.90;;;;;;5016924;28;20471;-80
2024/03/07 12:20:24;;;;;;;17.67;7.13;;;6.80;99.90;;;;;;5018328;28;20447;-79
2024/03/07 12:22:53;;;;;;;8.90;5.20;;;6.70;99.90;;;;;;5028079;28;21002;-80
2024/03/07 12:25:21;;;;;;;17.90;5.70;;;6.50;99.90;;;;;;5029290;28;20487;-80
2024/03/07 12:27:48;;;;;;;14.23;5.97;;;6.60;99.90;;;;;;5019216;28;20463;-79
2024/03/07 12:36:05;;;;;;;6.17;3.80;;;6.80;99.90;;;;;;5021134;28;20464;-81
2024/03/07 12:38:36;;;;;;;8.97;3.50;;;6.90;99.90;;;;;;5327761;23;20483;-81
2024/03/07 12:41:43;;;;;;;11.27;5.00;;;6.90;99.90;;;;;;5021742;28;20448;-81
2024/03/07 12:44:13;;;;;;;20.53;6.60;;;7.10;99.90;;;;;;5020820;28;20443;-81
2024/03/07 12:49:35;;;;;;;9.67;4.40;;;7.50;99.90;;;;;;5020381;28;20877;-81
2024/03/07 12:59:39;;;;;;;11.93;4.40;;;7.80;99.90;;;;;;4968141;28;20541;-81
2024/03/07 13:02:06;;;;;;;10.60;3.27;;;7.90;99.90;;;;;;4957198;28;20493;-81
2024/03/07 13:04:33;;;;;;;10.33;6.10;;;8.00;99.90;;;;;;5006928;28;20444;-81
2024/03/07 13:10:20;;;;;;;13.00;5.20;;;8.20;99.90;;;;;;4950618;28;20816;-80
2024/03/07 13:12:49;;;;;;;12.23;6.13;;;8.10;99.90;;;;;;5018921;28;20480;-81
2024/03/07 13:15:18;;;;;;;14.60;6.70;;;8.20;99.90;;;;;;5018507;28;20450;-81
2024/03/07 13:17:45;;;;;;;9.47;5.10;;;8.00;99.90;;;;;;5018303;28;20474;-81